PWSweather.com
Personal Weather Stations
Station Observations
KOHCLEVE171
Cleveland, OH

Cleveland, OH

Lat: 41.48646164, Lon: -81.46408081

Elevation: 1059

Station Type:

Latest ConditionsUpdated 6:16:00 AM EDT Saturday, Aug 24, 2019
Currently Today's Max Today's Min Today's Average
Temperature 58.6°F14.8°C 60.1°F15.6°C 58.1°F14.5°C 58.9°F14.9°C
Dew Point 51.8°F11.0°C 52.9°F11.6°C 51.3°F10.7°C 52.0°F11.1°C
Winds Calm Calm 1.3 mph -2.1 kmh - - 0.2 mph 0.3 kmh
Wind Gusts 1.1 mph1.8 kmh 1.6 mph2.6 kmh - -
Humidity 78% 80% 77% 78%
Pressure 30.22 in1023.4 mb 30.22 in1023.4 mb 30.17 in1021.7 mb -
Hour Temp Dew Point Humidity Winds Wind Gusts Pressure Precip Precip Rate Daily Precip Total
06:16 AM 58.6°F14.8°C 51.8°F11.0°C 78% Calm Calm 1.1 mph1.8 kmh 30.22 in1023.4 mb 0.00 in0.0 mm 0.00 in0.0 mm 0.00 in0.0 mm
06:10 AM 58.8°F14.9°C 52.0°F11.1°C 78% 0.4 mph SSE0.6 kmh SSE 1.1 mph1.8 kmh 30.21 in1023.0 mb 0.00 in0.0 mm 0.00 in0.0 mm 0.00 in0.0 mm
06:06 AM 58.8°F14.9°C 52.0°F11.1°C 78% 0.2 mph SSW0.3 kmh SSW 0.9 mph1.4 kmh 30.21 in1023.0 mb 0.00 in0.0 mm 0.00 in0.0 mm 0.00 in0.0 mm
06:00 AM 58.8°F14.9°C 52.0°F11.1°C 78% Calm Calm -- 30.21 in1023.0 mb 0.00 in0.0 mm 0.00 in0.0 mm 0.00 in0.0 mm
05:56 AM 58.6°F14.8°C 52.5°F11.4°C 80% 0.7 mph S1.1 kmh S 1.1 mph1.8 kmh 30.21 in1023.0 mb 0.00 in0.0 mm 0.00 in0.0 mm 0.00 in0.0 mm
05:50 AM 58.6°F14.8°C 52.5°F11.4°C 80% Calm Calm -- 30.20 in1022.7 mb 0.00 in0.0 mm 0.00 in0.0 mm 0.00 in0.0 mm
05:46 AM 58.6°F14.8°C 52.5°F11.4°C 80% Calm Calm -- 30.20 in1022.7 mb 0.00 in0.0 mm 0.00 in0.0 mm 0.00 in0.0 mm
05:40 AM 58.6°F14.8°C 52.5°F11.4°C 80% 1.1 mph SSW1.8 kmh SSW 1.3 mph2.1 kmh 30.20 in1022.7 mb 0.00 in0.0 mm 0.00 in0.0 mm 0.00 in0.0 mm
05:36 AM 58.6°F14.8°C 51.8°F11.0°C 78% 1.1 mph SSW1.8 kmh SSW 1.3 mph2.1 kmh 30.20 in1022.7 mb 0.00 in0.0 mm 0.00 in0.0 mm 0.00 in0.0 mm
05:30 AM 58.6°F14.8°C 51.8°F11.0°C 78% Calm Calm -- 30.20 in1022.7 mb 0.00 in0.0 mm 0.00 in0.0 mm 0.00 in0.0 mm
05:26 AM 58.6°F14.8°C 51.8°F11.0°C 78% Calm Calm -- 30.20 in1022.7 mb 0.00 in0.0 mm 0.00 in0.0 mm 0.00 in0.0 mm
05:20 AM 58.6°F14.8°C 51.8°F11.0°C 78% 1.1 mph SSW1.8 kmh SSW 1.1 mph1.8 kmh 30.20 in1022.7 mb 0.00 in0.0 mm 0.00 in0.0 mm 0.00 in0.0 mm
05:16 AM 58.6°F14.8°C 51.8°F11.0°C 78% 1.1 mph SSW1.8 kmh SSW 1.1 mph1.8 kmh 30.20 in1022.7 mb 0.00 in0.0 mm 0.00 in0.0 mm 0.00 in0.0 mm
05:10 AM 58.6°F14.8°C 51.8°F11.0°C 78% Calm Calm -- 30.19 in1022.4 mb 0.00 in0.0 mm 0.00 in0.0 mm 0.00 in0.0 mm
05:06 AM 58.8°F14.9°C 52.0°F11.1°C 78% Calm Calm -- 30.19 in1022.4 mb 0.00 in0.0 mm 0.00 in0.0 mm 0.00 in0.0 mm
05:00 AM 58.8°F14.9°C 52.0°F11.1°C 78% 0.9 mph SSW1.4 kmh SSW 1.1 mph1.8 kmh 30.19 in1022.4 mb 0.00 in0.0 mm 0.00 in0.0 mm 0.00 in0.0 mm
04:56 AM 58.8°F14.9°C 52.0°F11.1°C 78% 0.4 mph S0.6 kmh S 1.3 mph2.1 kmh 30.19 in1022.4 mb 0.00 in0.0 mm 0.00 in0.0 mm 0.00 in0.0 mm
04:50 AM 59.0°F15.0°C 52.2°F11.2°C 78% 0.7 mph S1.1 kmh S 1.3 mph2.1 kmh 30.19 in1022.4 mb 0.00 in0.0 mm 0.00 in0.0 mm 0.00 in0.0 mm
04:46 AM 59.2°F15.1°C 52.3°F11.3°C 78% 0.2 mph S0.3 kmh S 1.6 mph2.6 kmh 30.19 in1022.4 mb 0.00 in0.0 mm 0.00 in0.0 mm 0.00 in0.0 mm
04:40 AM 59.4°F15.2°C 52.5°F11.4°C 78% Calm Calm 1.1 mph1.8 kmh 30.19 in1022.4 mb 0.00 in0.0 mm 0.00 in0.0 mm 0.00 in0.0 mm
04:36 AM 59.4°F15.2°C 52.5°F11.4°C 78% Calm Calm -- 30.19 in1022.4 mb 0.00 in0.0 mm 0.00 in0.0 mm 0.00 in0.0 mm
04:30 AM 59.4°F15.2°C 52.5°F11.4°C 78% Calm Calm -- 30.19 in1022.4 mb 0.00 in0.0 mm 0.00 in0.0 mm 0.00 in0.0 mm
04:26 AM 59.4°F15.2°C 52.5°F11.4°C 78% 1.1 mph S1.8 kmh S 1.6 mph2.6 kmh 30.19 in1022.4 mb 0.00 in0.0 mm 0.00 in0.0 mm 0.00 in0.0 mm
04:20 AM 59.4°F15.2°C 52.5°F11.4°C 78% Calm Calm -- 30.19 in1022.4 mb 0.00 in0.0 mm 0.00 in0.0 mm 0.00 in0.0 mm
04:16 AM 59.4°F15.2°C 52.5°F11.4°C 78% Calm Calm -- 30.19 in1022.4 mb 0.00 in0.0 mm 0.00 in0.0 mm 0.00 in0.0 mm
04:10 AM 59.2°F15.1°C 52.3°F11.3°C 78% Calm Calm -- 30.18 in1022.0 mb 0.00 in0.0 mm 0.00 in0.0 mm 0.00 in0.0 mm
04:06 AM 59.2°F15.1°C 52.3°F11.3°C 78% Calm Calm -- 30.18 in1022.0 mb 0.00 in0.0 mm 0.00 in0.0 mm 0.00 in0.0 mm
04:00 AM 59.4°F15.2°C 52.5°F11.4°C 78% Calm Calm -- 30.18 in1022.0 mb 0.00 in0.0 mm 0.00 in0.0 mm 0.00 in0.0 mm
03:56 AM 59.4°F15.2°C 52.5°F11.4°C 78% Calm Calm -- 30.18 in1022.0 mb 0.00 in0.0 mm 0.00 in0.0 mm 0.00 in0.0 mm
03:50 AM 59.4°F15.2°C 52.5°F11.4°C 78% Calm Calm -- 30.18 in1022.0 mb 0.00 in0.0 mm 0.00 in0.0 mm 0.00 in0.0 mm
03:46 AM 59.4°F15.2°C 52.5°F11.4°C 78% Calm Calm -- 30.17 in1021.7 mb 0.00 in0.0 mm 0.00 in0.0 mm 0.00 in0.0 mm
03:40 AM 59.2°F15.1°C 52.3°F11.3°C 78% 0.7 mph SE1.1 kmh SE 1.1 mph1.8 kmh 30.17 in1021.7 mb 0.00 in0.0 mm 0.00 in0.0 mm 0.00 in0.0 mm
03:36 AM 59.2°F15.1°C 52.3°F11.3°C 78% Calm Calm -- 30.17 in1021.7 mb 0.00 in0.0 mm 0.00 in0.0 mm 0.00 in0.0 mm
03:30 AM 59.0°F15.0°C 52.2°F11.2°C 78% Calm Calm -- 30.17 in1021.7 mb 0.00 in0.0 mm 0.00 in0.0 mm 0.00 in0.0 mm
03:26 AM 58.6°F14.8°C 51.8°F11.0°C 78% Calm Calm -- 30.17 in1021.7 mb 0.00 in0.0 mm 0.00 in0.0 mm 0.00 in0.0 mm
03:20 AM 58.8°F14.9°C 52.0°F11.1°C 78% Calm Calm -- 30.18 in1022.0 mb 0.00 in0.0 mm 0.00 in0.0 mm 0.00 in0.0 mm
03:16 AM 58.8°F14.9°C 52.0°F11.1°C 78% Calm Calm -- 30.17 in1021.7 mb 0.00 in0.0 mm 0.00 in0.0 mm 0.00 in0.0 mm
03:10 AM 58.5°F14.7°C 51.6°F10.9°C 78% Calm Calm -- 30.18 in1022.0 mb 0.00 in0.0 mm 0.00 in0.0 mm 0.00 in0.0 mm
03:06 AM 58.5°F14.7°C 51.6°F10.9°C 78% 0.9 mph NE1.4 kmh NE 1.1 mph1.8 kmh 30.18 in1022.0 mb 0.00 in0.0 mm 0.00 in0.0 mm 0.00 in0.0 mm
03:02 AM 58.3°F14.6°C 51.4°F10.8°C 78% Calm Calm -- 30.18 in1022.0 mb 0.00 in0.0 mm 0.00 in0.0 mm 0.00 in0.0 mm
02:56 AM 58.3°F14.6°C 51.4°F10.8°C 78% Calm Calm -- 30.18 in1022.0 mb 0.00 in0.0 mm 0.00 in0.0 mm 0.00 in0.0 mm
02:51 AM 58.1°F14.5°C 51.3°F10.7°C 78% Calm Calm -- 30.17 in1021.7 mb 0.00 in0.0 mm 0.00 in0.0 mm 0.00 in0.0 mm
02:45 AM 58.5°F14.7°C 51.6°F10.9°C 78% Calm Calm -- 30.18 in1022.0 mb 0.00 in0.0 mm 0.00 in0.0 mm 0.00 in0.0 mm
02:41 AM 58.3°F14.6°C 51.4°F10.8°C 78% Calm Calm -- 30.18 in1022.0 mb 0.00 in0.0 mm 0.00 in0.0 mm 0.00 in0.0 mm
02:35 AM 58.1°F14.5°C 51.3°F10.7°C 78% Calm Calm -- 30.18 in1022.0 mb 0.00 in0.0 mm 0.00 in0.0 mm 0.00 in0.0 mm
02:31 AM 58.3°F14.6°C 51.4°F10.8°C 78% Calm Calm -- 30.18 in1022.0 mb 0.00 in0.0 mm 0.00 in0.0 mm 0.00 in0.0 mm
02:25 AM 58.3°F14.6°C 51.4°F10.8°C 78% 0.4 mph ESE0.6 kmh ESE 1.1 mph1.8 kmh 30.18 in1022.0 mb 0.00 in0.0 mm 0.00 in0.0 mm 0.00 in0.0 mm
02:21 AM 58.5°F14.7°C 51.6°F10.9°C 78% 0.4 mph ESE0.6 kmh ESE 1.1 mph1.8 kmh 30.18 in1022.0 mb 0.00 in0.0 mm 0.00 in0.0 mm 0.00 in0.0 mm
02:16 AM 58.5°F14.7°C 51.6°F10.9°C 78% 0.2 mph ENE0.3 kmh ENE 1.1 mph1.8 kmh 30.18 in1022.0 mb 0.00 in0.0 mm 0.00 in0.0 mm 0.00 in0.0 mm
02:11 AM 58.6°F14.8°C 51.4°F10.8°C 77% Calm Calm 0.7 mph1.1 kmh 30.18 in1022.0 mb 0.00 in0.0 mm 0.00 in0.0 mm 0.00 in0.0 mm
02:05 AM 58.6°F14.8°C 51.8°F11.0°C 78% Calm Calm -- 30.18 in1022.0 mb 0.00 in0.0 mm 0.00 in0.0 mm 0.00 in0.0 mm
02:01 AM 58.5°F14.7°C 51.6°F10.9°C 78% Calm Calm -- 30.18 in1022.0 mb 0.00 in0.0 mm 0.00 in0.0 mm 0.00 in0.0 mm
01:55 AM 58.5°F14.7°C 51.6°F10.9°C 78% Calm Calm -- 30.18 in1022.0 mb 0.00 in0.0 mm 0.00 in0.0 mm 0.00 in0.0 mm
01:51 AM 58.6°F14.8°C 51.4°F10.8°C 77% Calm Calm -- 30.18 in1022.0 mb 0.00 in0.0 mm 0.00 in0.0 mm 0.00 in0.0 mm
01:45 AM 58.6°F14.8°C 51.8°F11.0°C 78% 1.1 mph S1.8 kmh S 1.3 mph2.1 kmh 30.18 in1022.0 mb 0.00 in0.0 mm 0.00 in0.0 mm 0.00 in0.0 mm
01:41 AM 58.6°F14.8°C 51.8°F11.0°C 78% 1.3 mph S2.1 kmh S 1.6 mph2.6 kmh 30.18 in1022.0 mb 0.00 in0.0 mm 0.00 in0.0 mm 0.00 in0.0 mm
01:35 AM 58.6°F14.8°C 51.4°F10.8°C 77% Calm Calm 0.9 mph1.4 kmh 30.17 in1021.7 mb 0.00 in0.0 mm 0.00 in0.0 mm 0.00 in0.0 mm
01:31 AM 58.8°F14.9°C 51.6°F10.9°C 77% 0.7 mph SSE1.1 kmh SSE 1.6 mph2.6 kmh 30.18 in1022.0 mb 0.00 in0.0 mm 0.00 in0.0 mm 0.00 in0.0 mm
01:25 AM 58.8°F14.9°C 52.0°F11.1°C 78% Calm Calm -- 30.18 in1022.0 mb 0.00 in0.0 mm 0.00 in0.0 mm 0.00 in0.0 mm
01:21 AM 58.6°F14.8°C 51.8°F11.0°C 78% Calm Calm 0.9 mph1.4 kmh 30.18 in1022.0 mb 0.00 in0.0 mm 0.00 in0.0 mm 0.00 in0.0 mm
01:15 AM 58.3°F14.6°C 51.4°F10.8°C 78% Calm Calm -- 30.18 in1022.0 mb 0.00 in0.0 mm 0.00 in0.0 mm 0.00 in0.0 mm
01:11 AM 58.5°F14.7°C 51.6°F10.9°C 78% Calm Calm -- 30.17 in1021.7 mb 0.00 in0.0 mm 0.00 in0.0 mm 0.00 in0.0 mm
01:05 AM 58.5°F14.7°C 51.6°F10.9°C 78% Calm Calm 1.1 mph1.8 kmh 30.18 in1022.0 mb 0.00 in0.0 mm 0.00 in0.0 mm 0.00 in0.0 mm
01:01 AM 58.6°F14.8°C 51.8°F11.0°C 78% Calm Calm -- 30.17 in1021.7 mb 0.00 in0.0 mm 0.00 in0.0 mm 0.00 in0.0 mm
12:55 AM 59.0°F15.0°C 52.2°F11.2°C 78% Calm Calm -- 30.17 in1021.7 mb 0.00 in0.0 mm 0.00 in0.0 mm 0.00 in0.0 mm
12:51 AM 58.8°F14.9°C 51.6°F10.9°C 77% Calm Calm -- 30.17 in1021.7 mb 0.00 in0.0 mm 0.00 in0.0 mm 0.00 in0.0 mm
12:45 AM 59.0°F15.0°C 51.8°F11.0°C 77% Calm Calm -- 30.17 in1021.7 mb 0.00 in0.0 mm 0.00 in0.0 mm 0.00 in0.0 mm
12:42 AM 59.2°F15.1°C 52.3°F11.3°C 78% Calm Calm -- 30.17 in1021.7 mb 0.00 in0.0 mm 0.00 in0.0 mm 0.00 in0.0 mm
12:35 AM 59.4°F15.2°C 52.2°F11.2°C 77% Calm Calm -- 30.17 in1021.7 mb 0.00 in0.0 mm 0.00 in0.0 mm 0.00 in0.0 mm
12:30 AM 59.5°F15.3°C 52.3°F11.3°C 77% 0.2 mph NNW0.3 kmh NNW 1.3 mph2.1 kmh 30.17 in1021.7 mb 0.00 in0.0 mm 0.00 in0.0 mm 0.00 in0.0 mm
12:26 AM 59.5°F15.3°C 52.3°F11.3°C 77% Calm Calm 1.3 mph2.1 kmh 30.17 in1021.7 mb 0.00 in0.0 mm 0.00 in0.0 mm 0.00 in0.0 mm
12:21 AM 59.7°F15.4°C 52.5°F11.4°C 77% Calm Calm -- 30.17 in1021.7 mb 0.00 in0.0 mm 0.00 in0.0 mm 0.00 in0.0 mm
12:15 AM 59.9°F15.5°C 52.7°F11.5°C 77% Calm Calm -- 30.17 in1021.7 mb 0.00 in0.0 mm 0.00 in0.0 mm 0.00 in0.0 mm
12:11 AM 60.1°F15.6°C 52.9°F11.6°C 77% 0.2 mph NE0.3 kmh NE 0.9 mph1.4 kmh 30.17 in1021.7 mb 0.00 in0.0 mm 0.00 in0.0 mm 0.00 in0.0 mm
12:06 AM 60.1°F15.6°C 52.9°F11.6°C 77% 0.4 mph SE0.6 kmh SE 1.3 mph2.1 kmh 30.17 in1021.7 mb 0.00 in0.0 mm 0.00 in0.0 mm 0.00 in0.0 mm
12:01 AM 60.1°F15.6°C 52.9°F11.6°C 77% Calm Calm -- 30.17 in1021.7 mb 0.00 in0.0 mm 0.00 in0.0 mm 0.00 in0.0 mm